Perwez, Belgium
Current Conditions -  °F | °C
As of 2:25 PM on Sunday 23 Nov 2014 (Local Time) from EBBE Reporting Station
Clear Clear  
Wind Chill: 59°   Ceiling: Unl
Heat Index: 59°   Visibility: 6mi
Dew Point: 50°   Wind: 7mph
Humidity: 72%   Direction: 170°S
Pressure: 29.97"   Gusts: NA
Location:  50.62°N, 4.81°E
Report Text: EBBE 231325Z AUTO 17006KT 9999 NCD 15/10 Q1015 BLU
Loading
Personal Weather Stations






























Interactive Weather Map New forecast layout! Learn more

10-Day Weather Forecast

Advertisements
Track Severe Weather on mobile